Detall de PIREP

Printer-friendly versionPDF version

[2014/01/05 08:37:00]
Flight IATA:CT2305
Pilot Number:044
Company ICAO:CAT
Aircraft Type:AT72/F
PAX:19
Departing Airport: LIBC
Destination Airport: LIEA
Alternate Airport:LIEO
Online: VATSIM
Route:CDC Q182 NERAR M601 QUENN M622 SUKUN M603 MOROB
Flight Level:F180
No Slew and time accel
No pause
Crash detect
Detect pilot in Cockpit between each 30 and 45 minutes
08:37 Zero fuel Weight: 39663 Lbs, Fuel Weight: 11197 Lbs
08:37 VATSIM:LIBC 050750Z 19022KT 9999 BKN025 14/13 Q1016
08:37 VATSIM:LIEA 050820Z 28020G33KT 9999 FEW018 SCT025 12/05 Q1010
08:38 VOICE CATALONIAN
08:38 Parking Brakes off
08:46 Take-off
08:46 Take off Weight: 50775 Lbs
08:46 Wind: 188º @ 022 Knots Heading: 169º
08:46 POS N38º 59´ 42´´ E017º 04´ 50´´
08:46 Gear Up: 130 Knots
08:46 Flaps:1 at 130 Knots
08:47 Flaps:0 at 138 Knots
08:59 TOC
08:59 Fuel Weight: 10651 Lb
09:01 Wind:084º@024 Knots Heading: 271º Ground Speed: 283 Knots Altitude 18064 ft
09:16 Wind:188º@018 Knots Heading: 284º Ground Speed: 285 Knots Altitude 18064 ft
09:31 Wind:198º@017 Knots Heading: 284º Ground Speed: 282 Knots Altitude 17992 ft
09:46 Wind:236º@020 Knots Heading: 285º Ground Speed: 271 Knots Altitude 17916 ft
10:01 Wind:273º@054 Knots Heading: 281º Ground Speed: 232 Knots Altitude 17851 ft
10:08 TOD
10:08 Fuel Weight: 8479 Lb
10:16 Wind:241º@042 Knots Heading: 260º Ground Speed: 180 Knots Altitude 5843 ft
10:31 Wind:272º@043 Knots Heading: 264º Ground Speed: 156 Knots Altitude 5895 ft
10:39 Flaps:1 at 160 Knots
10:39 Flaps:2 at 158 Knots
10:42 Gear Down: 147 Knots
10:46 Wind:280º@022 Knots Heading: 209º Ground Speed: 113 Knots Altitude 209 ft
10:46 TouchDown:Rate -221 ft/min Speed: 106 Knots
10:46 VATSIM:LIEA 051020Z 28022G37KT 9999 FEW018 SCT025 13/06 Q1011
10:46 Land
10:46 Wind:280º@022 Knots
10:46 Heading: 205º
10:46 Flight Duration: 02:00
10:46 Landing Weight: 47565 Lbs
10:46 POS N40º 37´ 46´´ E008º 17´ 21´´
10:49 Parking brakes on
10:49 Block to Block Duration: 02:11
10:49 Final Fuel: 7879 Lbls
10:49 Spent Fuel: 3317 Lbls
10:49 Flight Length: 462 NM
10:49 TOD Land Length: 110 NM

Exportar CSV

Powered by Drupal - Modified by Danger4k